createdAt,value
2018-03-23T00:00:49.786Z,9.30
2018-03-23T00:01:49.780Z,9.00
2018-03-23T00:02:49.774Z,8.30
2018-03-23T00:03:49.768Z,8.50
2018-03-23T00:04:49.777Z,8.70
2018-03-23T00:05:49.757Z,8.60
2018-03-23T00:06:49.753Z,8.60
2018-03-23T00:07:49.746Z,8.00
2018-03-23T00:08:49.739Z,8.40
2018-03-23T00:09:49.739Z,8.40
2018-03-23T00:10:49.728Z,9.20
2018-03-23T00:11:49.723Z,9.00
2018-03-23T00:12:49.716Z,8.10
2018-03-23T00:13:49.710Z,8.00
2018-03-23T00:14:49.705Z,8.10
2018-03-23T00:15:49.699Z,8.00
2018-03-23T00:16:49.693Z,7.90
2018-03-23T00:17:49.787Z,8.00
2018-03-23T00:18:49.697Z,8.30
2018-03-23T00:19:49.676Z,7.30
2018-03-23T00:20:49.669Z,7.70
2018-03-23T00:21:49.678Z,8.00
2018-03-23T00:22:49.659Z,7.50
2018-03-23T00:23:49.651Z,8.00
2018-03-23T00:24:49.647Z,7.60
2018-03-23T00:25:49.639Z,7.70
2018-03-23T00:26:49.634Z,7.30
2018-03-23T00:27:49.643Z,7.80
2018-03-23T00:28:49.621Z,7.70
2018-03-23T00:29:49.636Z,8.40
2018-03-23T00:30:49.610Z,8.00
2018-03-23T00:31:49.619Z,7.70
2018-03-23T00:32:49.600Z,7.80
2018-03-23T00:33:49.607Z,8.60
2018-03-23T00:34:49.585Z,8.30
2018-03-23T00:35:49.600Z,8.30
2018-03-23T00:36:49.574Z,9.40
2018-03-23T00:37:49.567Z,7.90
2018-03-23T00:38:49.563Z,7.20
2018-03-23T00:39:49.571Z,6.70
2018-03-23T00:40:49.550Z,6.40
2018-03-23T00:41:49.543Z,6.20
2018-03-23T00:42:49.557Z,7.50
2018-03-23T00:43:49.551Z,6.40
2018-03-23T00:44:49.528Z,6.20
2018-03-23T00:45:49.520Z,5.40
2018-03-23T00:46:49.517Z,5.40
2018-03-23T00:47:49.527Z,5.70
2018-03-23T00:48:49.501Z,4.40
2018-03-23T00:49:49.497Z,4.40
2018-03-23T00:50:49.493Z,4.90
2018-03-23T00:51:49.500Z,4.90
2018-03-23T00:52:49.478Z,4.10
2018-03-23T00:53:49.472Z,4.40
2018-03-23T00:54:49.466Z,4.90
2018-03-23T00:55:49.460Z,4.20
2018-03-23T00:56:49.461Z,4.60
2018-03-23T00:57:49.449Z,5.00
2018-03-23T00:58:49.446Z,5.00
2018-03-23T00:59:49.440Z,4.20
2018-03-23T01:00:49.429Z,5.10
2018-03-23T01:01:49.439Z,4.60
2018-03-23T01:02:49.418Z,4.70
2018-03-23T01:03:49.432Z,4.40
2018-03-23T01:04:49.406Z,5.20
2018-03-23T01:05:49.415Z,4.60
2018-03-23T01:06:49.398Z,4.90
2018-03-23T01:07:49.393Z,5.00
2018-03-23T01:08:49.386Z,5.00
2018-03-23T01:09:49.431Z,4.20
2018-03-23T01:10:49.371Z,5.00
2018-03-23T01:11:49.384Z,5.40
2018-03-23T01:12:49.362Z,4.30
2018-03-23T01:13:49.353Z,3.90
2018-03-23T01:14:49.345Z,3.70
2018-03-23T01:15:49.345Z,4.20
2018-03-23T01:16:49.336Z,4.40
2018-03-23T01:17:49.348Z,4.30
2018-03-23T01:18:49.341Z,3.50
2018-03-23T01:19:49.317Z,4.30
2018-03-23T01:20:49.330Z,3.90
2018-03-23T01:21:49.306Z,4.00
2018-03-23T01:22:49.313Z,3.80
2018-03-23T01:23:49.312Z,4.00
2018-03-23T01:24:49.286Z,3.40
2018-03-23T01:25:49.283Z,4.10
2018-03-23T01:26:49.274Z,3.10
2018-03-23T01:27:49.268Z,3.20
2018-03-23T01:28:49.266Z,2.70
2018-03-23T01:29:49.259Z,3.30
2018-03-23T01:30:49.251Z,3.00
2018-03-23T01:31:49.260Z,2.80
2018-03-23T01:32:49.258Z,2.60
2018-03-23T01:33:49.232Z,2.40
2018-03-23T01:34:49.226Z,3.10
2018-03-23T01:35:49.221Z,2.60
2018-03-23T01:36:49.219Z,2.70
2018-03-23T01:37:49.228Z,2.60
2018-03-23T01:38:49.222Z,2.60
2018-03-23T01:39:49.216Z,2.50
2018-03-23T01:40:49.206Z,2.80
2018-03-23T01:41:49.212Z,2.40
2018-03-23T01:42:49.194Z,2.20
2018-03-23T01:43:49.177Z,2.10
2018-03-23T01:44:49.167Z,2.20
2018-03-23T01:45:49.161Z,2.10
2018-03-23T01:46:49.155Z,2.40
2018-03-23T01:47:49.254Z,2.00
2018-03-23T01:48:49.143Z,2.50
2018-03-23T01:49:49.156Z,2.20
2018-03-23T01:50:49.131Z,2.30
2018-03-23T01:51:49.130Z,2.60
2018-03-23T01:52:49.138Z,3.40
2018-03-23T01:53:49.133Z,3.40
2018-03-23T01:54:49.108Z,4.30
2018-03-23T01:55:49.102Z,4.00
2018-03-23T01:56:49.099Z,3.90
2018-03-23T01:57:49.099Z,4.30
2018-03-23T01:58:49.089Z,4.50
2018-03-23T01:59:49.077Z,3.80
2018-03-23T02:00:49.072Z,4.00
2018-03-23T02:01:49.067Z,3.70
2018-03-23T02:02:49.066Z,4.00
2018-03-23T02:03:49.055Z,3.60
2018-03-23T02:04:49.052Z,3.80
2018-03-23T02:05:49.048Z,3.60
2018-03-23T02:06:49.053Z,4.20
2018-03-23T02:07:49.051Z,3.50
2018-03-23T02:08:49.051Z,4.00
2018-03-23T02:09:49.034Z,3.80
2018-03-23T02:10:49.014Z,4.30
2018-03-23T02:11:49.008Z,4.10
2018-03-23T02:12:49.002Z,3.70
2018-03-23T02:13:48.996Z,3.70
2018-03-23T02:14:48.994Z,3.70
2018-03-23T02:15:48.984Z,3.40
2018-03-23T02:16:48.981Z,3.50
2018-03-23T02:17:49.073Z,3.70
2018-03-23T02:18:48.972Z,3.10
2018-03-23T02:19:48.960Z,3.20
2018-03-23T02:20:48.955Z,2.90
2018-03-23T02:21:48.949Z,2.90
2018-03-23T02:22:48.942Z,3.20
2018-03-23T02:23:48.937Z,2.50
2018-03-23T02:24:48.931Z,2.40
2018-03-23T02:25:48.929Z,2.90
2018-03-23T02:26:48.939Z,2.90
2018-03-23T02:27:48.914Z,2.70
2018-03-23T02:28:48.910Z,2.70
2018-03-23T02:29:48.905Z,2.70
2018-03-23T02:30:48.902Z,2.70
2018-03-23T02:31:48.906Z,2.80
2018-03-23T02:32:48.904Z,2.50
2018-03-23T02:33:48.893Z,2.60
2018-03-23T02:34:48.893Z,2.20
2018-03-23T02:35:48.873Z,2.80
2018-03-23T02:36:48.876Z,2.80
2018-03-23T02:37:48.883Z,2.50
2018-03-23T02:38:48.865Z,3.00
2018-03-23T02:39:48.859Z,2.70
2018-03-23T02:40:48.853Z,3.00
2018-03-23T02:41:48.847Z,2.50
2018-03-23T02:42:48.827Z,3.00
2018-03-23T02:43:48.821Z,3.40
2018-03-23T02:44:48.833Z,2.40
2018-03-23T02:45:48.825Z,2.90
2018-03-23T02:46:48.807Z,2.10
2018-03-23T02:47:48.797Z,2.10
2018-03-23T02:48:48.807Z,1.90
2018-03-23T02:49:48.786Z,1.80
2018-03-23T02:50:48.795Z,1.80
2018-03-23T02:51:48.777Z,1.70
2018-03-23T02:52:48.784Z,1.60
2018-03-23T02:53:48.762Z,1.70
2018-03-23T02:54:48.758Z,1.80
2018-03-23T02:55:48.767Z,1.50
2018-03-23T02:56:48.761Z,1.40
2018-03-23T02:57:48.762Z,1.50
2018-03-23T02:58:48.756Z,1.30
2018-03-23T02:59:48.743Z,1.50
2018-03-23T03:00:48.727Z,1.80
2018-03-23T03:01:48.720Z,1.80
2018-03-23T03:02:48.733Z,1.60
2018-03-23T03:03:48.705Z,1.50
2018-03-23T03:04:48.722Z,1.40
2018-03-23T03:05:48.699Z,1.40
2018-03-23T03:06:48.691Z,1.80
2018-03-23T03:07:48.701Z,1.30
2018-03-23T03:08:48.674Z,1.70
2018-03-23T03:09:48.685Z,2.00
2018-03-23T03:10:48.663Z,1.40
2018-03-23T03:11:48.680Z,1.80
2018-03-23T03:12:48.658Z,1.10
2018-03-23T03:13:48.647Z,1.30
2018-03-23T03:14:48.662Z,1.30
2018-03-23T03:15:48.653Z,1.10
2018-03-23T03:16:48.633Z,1.70
2018-03-23T03:17:48.623Z,1.60
2018-03-23T03:18:48.621Z,1.40
2018-03-23T03:19:48.615Z,1.40
2018-03-23T03:20:48.606Z,1.20
2018-03-23T03:21:48.604Z,2.00
2018-03-23T03:22:48.609Z,1.20
2018-03-23T03:23:48.604Z,1.00
2018-03-23T03:24:48.582Z,1.30
2018-03-23T03:25:48.577Z,1.30
2018-03-23T03:26:48.589Z,1.70
2018-03-23T03:27:48.583Z,1.30
2018-03-23T03:28:48.559Z,1.30
2018-03-23T03:29:48.571Z,1.80
2018-03-23T03:30:48.553Z,1.30
2018-03-23T03:31:48.550Z,1.30
2018-03-23T03:32:48.538Z,1.30
2018-03-23T03:33:48.533Z,1.10
2018-03-23T03:34:48.524Z,1.20
2018-03-23T03:35:48.525Z,1.70
2018-03-23T03:36:48.513Z,1.30
2018-03-23T03:37:48.528Z,1.20
2018-03-23T03:38:48.518Z,1.50
2018-03-23T03:39:48.496Z,1.10
2018-03-23T03:40:48.488Z,1.30
2018-03-23T03:41:48.483Z,1.20
2018-03-23T03:42:48.480Z,1.40
2018-03-23T03:43:48.490Z,1.30
2018-03-23T03:44:48.469Z,1.20
2018-03-23T03:45:48.478Z,1.80
2018-03-23T03:46:48.478Z,1.20
2018-03-23T03:47:48.453Z,1.20
2018-03-23T03:48:48.461Z,1.50
2018-03-23T03:49:48.437Z,1.00
2018-03-23T03:50:48.436Z,1.60
2018-03-23T03:51:48.426Z,1.20
2018-03-23T03:52:48.419Z,1.20
2018-03-23T03:53:48.414Z,1.10
2018-03-23T03:54:48.408Z,1.40
2018-03-23T03:55:48.403Z,1.60
2018-03-23T03:56:48.414Z,1.40
2018-03-23T03:57:48.393Z,1.00
2018-03-23T03:58:48.402Z,1.00
2018-03-23T03:59:48.396Z,1.30
2018-03-23T04:00:48.393Z,1.10
2018-03-23T04:01:48.371Z,1.00
2018-03-23T04:02:48.367Z,1.20
2018-03-23T04:03:48.373Z,2.00
2018-03-23T04:04:48.351Z,1.50
2018-03-23T04:05:48.345Z,1.10
2018-03-23T04:06:48.339Z,1.30
2018-03-23T04:07:48.339Z,1.10
2018-03-23T04:08:48.343Z,1.10
2018-03-23T04:09:48.338Z,1.00
2018-03-23T04:10:48.320Z,1.40
2018-03-23T04:11:48.312Z,1.50
2018-03-23T04:12:48.308Z,1.30
2018-03-23T04:13:48.300Z,1.20
2018-03-23T04:14:48.295Z,1.90
2018-03-23T04:15:48.289Z,1.40
2018-03-23T04:16:48.287Z,1.10
2018-03-23T04:17:48.376Z,1.50
2018-03-23T04:18:48.272Z,2.20
2018-03-23T04:19:48.269Z,1.10
2018-03-23T04:20:48.263Z,1.20
2018-03-23T04:21:48.255Z,1.80
2018-03-23T04:22:48.249Z,1.50
2018-03-23T04:23:48.244Z,2.30
2018-03-23T04:24:48.237Z,2.00
2018-03-23T04:25:48.233Z,2.50
2018-03-23T04:26:48.237Z,1.60
2018-03-23T04:27:48.254Z,1.60
2018-03-23T04:28:48.216Z,1.80
2018-03-23T04:29:48.329Z,2.00
2018-03-23T04:30:48.204Z,1.70
2018-03-23T04:31:48.203Z,1.50
2018-03-23T04:32:48.213Z,1.50
2018-03-23T04:33:48.193Z,1.70
2018-03-23T04:34:48.186Z,1.70
2018-03-23T04:35:48.191Z,1.60
2018-03-23T04:36:48.189Z,1.90
2018-03-23T04:37:48.167Z,1.70
2018-03-23T04:38:48.175Z,2.30
2018-03-23T04:39:48.156Z,1.80
2018-03-23T04:40:48.157Z,1.80
2018-03-23T04:41:48.146Z,2.60
2018-03-23T04:42:48.158Z,1.70
2018-03-23T04:43:48.128Z,2.80
2018-03-23T04:44:48.130Z,1.90
2018-03-23T04:49:34.104Z,2.70
2018-03-23T04:50:34.108Z,2.00
2018-03-23T04:51:34.115Z,1.90
2018-03-23T04:52:34.105Z,2.30
2018-03-23T04:53:34.110Z,1.90
2018-03-23T04:54:34.092Z,2.30
2018-03-23T04:55:34.097Z,2.10
2018-03-23T04:56:34.096Z,2.30
2018-03-23T04:57:34.069Z,2.60
2018-03-23T04:58:34.077Z,2.40
2018-03-23T04:59:34.054Z,1.80
2018-03-23T05:00:34.070Z,2.10
2018-03-23T05:01:34.065Z,2.80
2018-03-23T05:02:34.058Z,2.50
2018-03-23T05:03:34.047Z,2.20
2018-03-23T05:04:34.030Z,2.20
2018-03-23T05:05:34.024Z,2.00
2018-03-23T05:06:34.019Z,2.70
2018-03-23T05:07:34.026Z,2.60
2018-03-23T05:08:34.010Z,2.30
2018-03-23T05:09:34.020Z,2.90
2018-03-23T05:10:33.993Z,2.10
2018-03-23T05:11:33.989Z,1.90
2018-03-23T05:12:33.985Z,2.20
2018-03-23T05:13:33.980Z,2.50
2018-03-23T05:14:33.974Z,3.70
2018-03-23T05:15:33.967Z,2.90
2018-03-23T05:16:33.963Z,2.60
2018-03-23T05:17:33.974Z,2.20
2018-03-23T05:18:33.952Z,2.60
2018-03-23T05:19:33.963Z,2.10
2018-03-23T05:20:33.940Z,2.30
2018-03-23T05:21:33.930Z,2.60
2018-03-23T05:22:33.924Z,3.00
2018-03-23T05:23:33.923Z,3.70
2018-03-23T05:24:33.908Z,3.90
2018-03-23T05:25:33.911Z,3.00
2018-03-23T05:26:33.920Z,3.10
2018-03-23T05:27:33.900Z,2.90
2018-03-23T05:28:33.886Z,3.10
2018-03-23T05:29:33.885Z,3.20
2018-03-23T05:30:33.879Z,3.80
2018-03-23T05:31:33.886Z,2.90
2018-03-23T05:32:33.868Z,3.10
2018-03-23T05:33:33.867Z,3.50
2018-03-23T05:34:33.862Z,3.20
2018-03-23T05:35:33.862Z,3.40
2018-03-23T05:36:33.840Z,4.40
2018-03-23T05:37:33.839Z,3.90
2018-03-23T05:38:33.847Z,2.90
2018-03-23T05:39:33.825Z,3.10
2018-03-23T05:40:33.823Z,4.30
2018-03-23T05:41:33.812Z,5.00
2018-03-23T05:42:33.812Z,3.20
2018-03-23T05:43:33.817Z,3.00
2018-03-23T05:44:33.800Z,3.20
2018-03-23T05:45:33.795Z,4.30
2018-03-23T05:46:33.789Z,3.20
2018-03-23T05:47:33.783Z,3.60
2018-03-23T05:48:33.778Z,3.70
2018-03-23T05:49:33.793Z,3.20
2018-03-23T05:50:33.784Z,4.50
2018-03-23T05:51:33.760Z,3.50
2018-03-23T12:02:55.397Z,19.80
2018-03-23T12:03:55.140Z,17.80
2018-03-23T12:04:55.193Z,16.80
2018-03-23T12:05:55.134Z,16.30
2018-03-23T12:06:55.134Z,16.60
2018-03-23T12:07:55.144Z,16.70
2018-03-23T12:08:55.120Z,15.70
2018-03-23T12:09:55.129Z,15.80
2018-03-23T12:10:55.108Z,14.40
2018-03-23T12:11:55.120Z,16.30
2018-03-23T12:12:55.099Z,16.50
2018-03-23T12:13:55.098Z,15.80
2018-03-23T12:14:55.091Z,13.40
2018-03-23T12:15:55.113Z,13.20
2018-03-23T12:16:55.101Z,16.30
2018-03-23T12:17:55.075Z,15.10
2018-03-23T12:18:55.075Z,12.30
2018-03-23T12:19:55.081Z,14.20
2018-03-23T12:20:55.090Z,13.90
2018-03-23T12:21:55.059Z,13.90
2018-03-23T12:22:55.070Z,12.80
2018-03-23T12:23:55.049Z,12.20
2018-03-23T12:24:55.048Z,13.10
2018-03-23T12:25:55.041Z,14.40
2018-03-23T12:26:55.063Z,14.90
2018-03-23T12:27:55.033Z,14.00
2018-03-23T12:28:55.031Z,14.50
2018-03-23T12:29:55.026Z,13.70
2018-03-23T12:30:55.040Z,13.10
2018-03-23T12:31:55.068Z,14.20
2018-03-23T12:32:55.184Z,15.40
2018-03-23T12:33:55.013Z,13.30
2018-03-23T12:34:55.012Z,13.20
2018-03-23T12:35:55.007Z,12.20
2018-03-23T12:36:55.005Z,13.60
2018-03-23T12:37:55.056Z,13.80
2018-03-23T12:38:54.999Z,12.70
2018-03-23T12:39:55.009Z,12.20
2018-03-23T12:40:54.994Z,11.80
2018-03-23T12:41:54.986Z,12.60
2018-03-23T12:42:54.989Z,15.10
2018-03-23T12:43:54.980Z,16.80
2018-03-23T12:44:54.984Z,16.60
2018-03-23T12:45:54.981Z,14.80
2018-03-23T12:46:54.979Z,15.40
2018-03-23T12:47:54.978Z,14.30
2018-03-23T12:48:54.975Z,13.60
2018-03-23T12:49:54.972Z,13.70
2018-03-23T12:50:54.965Z,12.80
2018-03-23T12:51:55.023Z,13.70
2018-03-23T12:52:54.961Z,13.50
2018-03-23T12:53:54.961Z,15.10
2018-03-23T12:54:54.964Z,14.90
2018-03-23T12:55:54.962Z,15.30
2018-03-23T12:56:54.958Z,14.50
2018-03-23T12:57:54.965Z,14.70
2018-03-23T12:58:54.961Z,14.90
2018-03-23T12:59:54.961Z,14.50
2018-03-23T13:00:54.959Z,13.40
2018-03-23T13:01:54.949Z,12.50
2018-03-23T13:02:54.951Z,12.00
2018-03-23T13:03:54.948Z,12.10
2018-03-23T13:04:54.952Z,14.00
2018-03-23T13:05:54.966Z,15.20
2018-03-23T13:06:54.946Z,15.40
2018-03-23T13:07:54.948Z,16.80
2018-03-23T13:08:54.948Z,14.90
2018-03-23T13:09:54.945Z,14.50
2018-03-23T13:10:54.950Z,13.70
2018-03-23T13:11:54.942Z,13.10
2018-03-23T13:12:54.942Z,13.40
2018-03-23T13:13:54.939Z,13.70
2018-03-23T13:14:54.943Z,12.40
2018-03-23T13:15:54.939Z,12.40
2018-03-23T13:16:54.942Z,10.60
2018-03-23T13:17:54.943Z,12.40
2018-03-23T13:18:54.937Z,10.70
2018-03-23T13:19:54.942Z,14.40
2018-03-23T13:20:54.942Z,14.60
2018-03-23T13:21:54.941Z,14.80
2018-03-23T13:22:54.955Z,12.40
2018-03-23T13:23:54.938Z,11.00
2018-03-23T13:24:54.939Z,12.20
2018-03-23T13:25:54.941Z,12.40
2018-03-23T13:26:54.939Z,13.90
2018-03-23T13:27:54.939Z,13.10
2018-03-23T13:28:54.936Z,13.10
2018-03-23T13:29:54.941Z,13.00
2018-03-23T13:30:54.938Z,14.70
2018-03-23T13:31:54.938Z,13.10
2018-03-23T13:32:54.941Z,12.50
2018-03-23T13:33:54.938Z,12.40
2018-03-23T13:34:54.938Z,11.80
2018-03-23T13:35:54.930Z,13.20
2018-03-23T13:36:54.930Z,12.30
2018-03-23T13:37:54.939Z,10.20
2018-03-23T13:38:54.940Z,11.00
2018-03-23T13:39:54.951Z,10.40
2018-03-23T13:40:54.949Z,11.80
2018-03-23T13:41:54.941Z,12.00
2018-03-23T13:42:54.930Z,11.90
2018-03-23T13:43:55.015Z,12.80
2018-03-23T13:44:54.943Z,12.00
2018-03-23T13:45:54.943Z,12.00
2018-03-23T13:46:54.944Z,11.80
2018-03-23T13:47:54.945Z,14.80
2018-03-23T13:48:54.944Z,14.50
2018-03-23T13:49:54.986Z,14.40
2018-03-23T13:50:54.946Z,12.30
2018-03-23T13:51:54.936Z,12.10
2018-03-23T13:52:54.947Z,13.40
2018-03-23T13:53:54.938Z,12.80
2018-03-23T13:54:54.949Z,14.10
2018-03-23T13:55:54.956Z,14.40
2018-03-23T13:56:54.952Z,14.10
2018-03-23T13:57:54.956Z,13.60
2018-03-23T13:58:54.943Z,13.60
2018-03-23T13:59:54.949Z,14.00
2018-03-23T14:00:54.950Z,12.60
2018-03-23T14:01:54.951Z,12.80
2018-03-23T14:02:54.953Z,16.20
2018-03-23T14:03:54.956Z,16.70
2018-03-23T14:04:54.957Z,16.30
2018-03-23T14:05:54.946Z,14.90
2018-03-23T14:06:54.960Z,12.60
2018-03-23T14:07:54.957Z,12.50
2018-03-23T14:08:54.956Z,13.00
2018-03-23T14:09:54.956Z,14.00
2018-03-23T14:10:54.958Z,12.20
2018-03-23T14:11:54.954Z,13.10
2018-03-23T14:12:54.957Z,13.50
2018-03-23T14:13:54.956Z,13.80
2018-03-23T14:14:54.968Z,13.40
2018-03-23T14:15:54.960Z,11.50
2018-03-23T14:16:54.961Z,11.20
2018-03-23T14:17:54.960Z,9.60
2018-03-23T14:18:54.963Z,11.40
2018-03-23T14:19:54.964Z,10.50
2018-03-23T14:20:54.965Z,11.30
2018-03-23T14:21:54.966Z,11.20
2018-03-23T14:22:54.961Z,13.00
2018-03-23T14:23:54.957Z,12.80
2018-03-23T14:24:54.973Z,12.00
2018-03-23T14:25:54.966Z,12.30
2018-03-23T14:26:54.968Z,12.00
2018-03-23T14:27:54.969Z,12.70
2018-03-23T14:28:54.983Z,10.60
2018-03-23T14:29:54.984Z,10.10
2018-03-23T14:30:54.968Z,10.00
2018-03-23T14:31:54.971Z,9.80
2018-03-23T14:32:54.969Z,9.50
2018-03-23T14:33:54.973Z,10.40
2018-03-23T14:34:54.977Z,9.30
2018-03-23T14:35:54.988Z,10.10
2018-03-23T14:36:54.977Z,9.90
2018-03-23T14:37:54.990Z,9.90
2018-03-23T14:38:54.991Z,11.20
2018-03-23T14:39:54.977Z,14.20
2018-03-23T14:40:54.970Z,12.00
2018-03-23T14:41:54.979Z,10.30
2018-03-23T14:42:54.995Z,9.80
2018-03-23T14:43:54.986Z,11.80
2018-03-23T14:44:54.976Z,11.60
2018-03-23T14:45:54.986Z,12.40
2018-03-23T14:46:55.006Z,12.20
2018-03-23T14:47:54.980Z,11.20
2018-03-23T14:48:54.982Z,10.90
2018-03-23T14:49:55.001Z,10.70
2018-03-23T14:50:54.999Z,12.30
2018-03-23T14:51:55.000Z,12.60
2018-03-23T14:52:54.984Z,11.00
2018-03-23T14:53:55.014Z,10.70
2018-03-23T14:54:54.983Z,11.60
2018-03-23T14:55:54.985Z,10.90
2018-03-23T14:56:54.990Z,9.40
2018-03-23T14:57:54.991Z,10.40
2018-03-23T14:58:55.005Z,11.60
2018-03-23T14:59:54.989Z,12.30
2018-03-23T15:00:54.991Z,12.40
2018-03-23T15:01:55.016Z,11.30
2018-03-23T15:02:54.997Z,11.80
2018-03-23T15:03:54.997Z,11.20
2018-03-23T15:04:55.000Z,11.40
2018-03-23T15:05:55.000Z,10.90
2018-03-23T15:06:55.002Z,11.40
2018-03-23T15:07:55.017Z,11.70
2018-03-23T15:08:55.004Z,11.90
2018-03-23T15:09:55.000Z,11.60
2018-03-23T15:10:55.006Z,10.50
2018-03-23T15:11:55.009Z,10.80
2018-03-23T15:12:55.009Z,10.80
2018-03-23T15:13:55.023Z,11.10
2018-03-23T15:14:55.011Z,10.20
2018-03-23T15:15:55.013Z,9.90
2018-03-23T15:16:55.027Z,9.40
2018-03-23T15:17:55.010Z,8.70
2018-03-23T15:18:55.011Z,8.40
2018-03-23T15:19:55.034Z,7.70
2018-03-23T15:20:55.032Z,8.60
2018-03-23T15:21:55.038Z,7.90
2018-03-23T15:22:55.014Z,8.40
2018-03-23T15:23:55.013Z,7.40
2018-03-23T15:24:55.016Z,7.90
2018-03-23T15:25:55.018Z,7.70
2018-03-23T15:26:55.016Z,7.50
2018-03-23T15:27:55.017Z,9.10
2018-03-23T15:28:55.035Z,11.20
2018-03-23T15:29:55.035Z,11.50
2018-03-23T15:30:55.018Z,11.70
2018-03-23T15:31:55.018Z,12.10
2018-03-23T15:32:55.036Z,11.30
2018-03-23T15:33:55.023Z,11.80
2018-03-23T15:34:55.026Z,13.00
2018-03-23T15:35:55.033Z,12.50
2018-03-23T15:36:55.037Z,12.20
2018-03-23T15:37:55.020Z,10.80
2018-03-23T15:38:55.021Z,10.40
2018-03-23T15:39:55.042Z,10.80
2018-03-23T15:40:55.031Z,11.00
2018-03-23T15:41:55.020Z,11.20
2018-03-23T15:42:55.025Z,9.90
2018-03-23T15:43:55.021Z,9.80
2018-03-23T15:44:55.026Z,9.80
2018-03-23T15:45:55.024Z,11.40
2018-03-23T15:46:55.025Z,9.80
2018-03-23T15:47:55.022Z,9.80
2018-03-23T15:48:55.043Z,10.30
2018-03-23T15:49:55.023Z,9.20
2018-03-23T15:50:55.023Z,9.60
2018-03-23T15:51:55.029Z,9.70
2018-03-23T15:52:55.025Z,9.10
2018-03-23T15:53:55.027Z,11.40
2018-03-23T15:54:55.028Z,12.00
2018-03-23T15:55:55.026Z,11.90
2018-03-23T15:56:55.031Z,11.20
2018-03-23T15:57:55.030Z,10.40
2018-03-23T15:58:55.025Z,9.80
2018-03-23T15:59:55.031Z,12.70
2018-03-23T16:00:55.044Z,14.60
2018-03-23T16:01:55.091Z,11.90
2018-03-23T16:02:55.031Z,9.90
2018-03-23T16:03:55.032Z,10.60
2018-03-23T16:04:55.033Z,10.40
2018-03-23T16:05:55.029Z,9.70
2018-03-23T16:06:55.034Z,9.00
2018-03-23T16:07:55.031Z,10.10
2018-03-23T16:08:55.051Z,10.70
2018-03-23T16:09:55.047Z,10.10
2018-03-23T16:10:55.040Z,10.90
2018-03-23T16:11:55.038Z,10.40
2018-03-23T16:12:55.034Z,10.80
2018-03-23T16:13:55.033Z,10.70
2018-03-23T16:14:55.048Z,10.30
2018-03-23T16:15:55.034Z,12.30
2018-03-23T16:16:55.039Z,14.80
2018-03-23T16:17:55.040Z,15.30
2018-03-23T16:18:55.034Z,13.90
2018-03-23T16:19:55.040Z,11.80
2018-03-23T16:20:55.035Z,11.90
2018-03-23T16:21:55.034Z,11.80
2018-03-23T16:22:55.035Z,11.30
2018-03-23T16:23:55.037Z,11.20
2018-03-23T16:24:55.035Z,10.00
2018-03-23T16:25:55.039Z,9.60
2018-03-23T16:26:55.032Z,9.60
2018-03-23T16:27:55.039Z,10.30
2018-03-23T16:28:55.039Z,10.30
2018-03-23T16:29:55.038Z,9.90
2018-03-23T16:30:55.029Z,9.20
2018-03-23T16:31:55.038Z,9.90
2018-03-23T16:32:55.054Z,9.90
2018-03-23T16:33:55.029Z,9.70
2018-03-23T16:34:55.036Z,9.50
2018-03-23T16:35:55.054Z,10.10
2018-03-23T16:36:55.041Z,11.30
2018-03-23T16:37:55.034Z,12.00
2018-03-23T16:38:55.030Z,10.80
2018-03-23T16:39:55.035Z,10.00
2018-03-23T16:40:55.041Z,9.90
2018-03-23T16:41:55.034Z,9.50
2018-03-23T16:42:55.104Z,9.10
2018-03-23T16:43:55.040Z,9.50
2018-03-23T16:44:55.041Z,7.90
2018-03-23T16:45:55.048Z,7.90
2018-03-23T16:46:55.040Z,9.50
2018-03-23T16:47:55.055Z,9.30
2018-03-23T16:48:55.041Z,8.30
2018-03-23T16:49:55.031Z,8.10
2018-03-23T16:50:55.041Z,8.70
2018-03-23T16:51:55.047Z,8.60
2018-03-23T16:52:55.031Z,9.40
2018-03-23T16:53:55.036Z,9.40
2018-03-23T16:54:55.037Z,8.60
2018-03-23T16:55:55.054Z,8.70
2018-03-23T16:56:55.050Z,9.30
2018-03-23T16:57:55.030Z,8.80
2018-03-23T16:58:55.032Z,8.50
2018-03-23T16:59:55.045Z,8.20
2018-03-23T17:00:55.059Z,8.10
2018-03-23T17:01:55.055Z,13.80
2018-03-23T17:02:55.049Z,17.00
2018-03-23T17:03:55.043Z,18.10
2018-03-23T17:04:55.059Z,15.50
2018-03-23T17:05:55.060Z,16.20
2018-03-23T17:06:55.041Z,16.70
2018-03-23T17:07:55.044Z,18.70
2018-03-23T17:08:55.035Z,19.70
2018-03-23T17:09:55.041Z,19.90
2018-03-23T17:10:55.159Z,20.30
2018-03-23T17:11:55.059Z,19.90
2018-03-23T17:12:55.054Z,20.70
2018-03-23T17:13:55.036Z,20.30
2018-03-23T17:14:55.030Z,22.00
2018-03-23T17:15:55.043Z,23.80
2018-03-23T17:16:55.037Z,23.10
2018-03-23T17:17:55.036Z,27.50
2018-03-23T17:18:55.057Z,29.00
2018-03-23T17:19:55.049Z,30.30
2018-03-23T17:20:55.053Z,30.10
2018-03-23T17:21:55.038Z,31.30
2018-03-23T17:22:55.033Z,30.90
2018-03-23T17:23:55.051Z,31.00
2018-03-23T17:24:55.044Z,31.70
2018-03-23T17:25:55.035Z,31.10
2018-03-23T17:26:55.062Z,28.80
2018-03-23T17:27:55.034Z,31.30
2018-03-23T17:28:55.048Z,29.70
2018-03-23T17:29:55.022Z,30.20
2018-03-23T17:30:55.032Z,30.90
2018-03-23T17:31:55.027Z,30.70
2018-03-23T17:32:55.020Z,31.60
2018-03-23T17:33:55.200Z,30.90
2018-03-23T17:34:55.018Z,31.00
2018-03-23T17:35:55.025Z,31.80
2018-03-23T17:36:55.023Z,31.30
2018-03-23T17:37:55.028Z,31.60
2018-03-23T17:38:55.039Z,31.50
2018-03-23T17:39:55.038Z,32.00
2018-03-23T17:40:55.036Z,31.80
2018-03-23T17:41:55.012Z,32.80
2018-03-23T17:42:55.008Z,31.40
2018-03-23T17:43:55.025Z,30.80
2018-03-23T17:44:55.010Z,32.00
2018-03-23T17:45:55.006Z,33.50
2018-03-23T17:46:55.002Z,33.50
2018-03-23T17:47:55.004Z,31.40
2018-03-23T17:48:55.033Z,32.60
2018-03-23T17:49:55.000Z,33.10
2018-03-23T17:50:54.998Z,32.20
2018-03-23T17:51:55.009Z,31.50
2018-03-23T17:52:55.011Z,31.80
2018-03-23T17:53:54.987Z,31.80
2018-03-23T17:54:54.985Z,30.90
2018-03-23T17:55:54.976Z,32.10
2018-03-23T17:56:54.981Z,32.50
2018-03-23T17:57:54.977Z,32.90
2018-03-23T17:58:54.976Z,31.50
2018-03-23T17:59:54.967Z,30.80
2018-03-23T18:00:54.972Z,32.40
2018-03-23T18:01:54.972Z,36.70
2018-03-23T18:02:54.965Z,37.60
2018-03-23T18:03:54.963Z,37.40
2018-03-23T18:04:54.964Z,38.80
2018-03-23T18:05:54.957Z,35.60
2018-03-23T18:06:54.955Z,36.80
2018-03-23T18:07:54.948Z,37.90
2018-03-23T18:08:54.950Z,37.40
2018-03-23T18:09:54.946Z,38.60
2018-03-23T18:10:54.943Z,38.10
2018-03-23T18:11:54.940Z,37.70
2018-03-23T18:12:54.943Z,38.80
2018-03-23T18:13:54.934Z,40.20
2018-03-23T18:14:54.932Z,39.40
2018-03-23T18:15:54.922Z,39.50
2018-03-23T18:16:54.926Z,39.00
2018-03-23T18:17:54.922Z,38.60
2018-03-23T18:18:54.919Z,38.20
2018-03-23T18:19:54.915Z,38.70
2018-03-23T18:20:54.913Z,37.30
2018-03-23T18:21:54.909Z,37.00
2018-03-23T18:22:54.906Z,38.10
2018-03-23T18:23:54.906Z,36.20
2018-03-23T18:24:54.902Z,37.40
2018-03-23T18:25:54.888Z,39.10
2018-03-23T18:26:54.892Z,37.70
2018-03-23T18:27:54.892Z,38.30
2018-03-23T18:28:54.888Z,38.30
2018-03-23T18:29:54.881Z,40.50
2018-03-23T18:30:54.872Z,39.50
2018-03-23T18:31:54.882Z,41.00
2018-03-23T18:32:54.872Z,41.90
2018-03-23T18:33:54.868Z,40.40
2018-03-23T18:34:54.858Z,41.10
2018-03-23T18:35:54.861Z,40.70
2018-03-23T18:36:54.860Z,39.60
2018-03-23T18:37:54.854Z,39.60
2018-03-23T18:38:54.851Z,40.50
2018-03-23T18:39:54.848Z,38.30
2018-03-23T18:40:54.840Z,37.70
2018-03-23T18:41:54.843Z,38.50
2018-03-23T18:42:54.837Z,37.50
2018-03-23T18:43:54.833Z,38.10
2018-03-23T18:44:54.830Z,38.40
2018-03-23T18:45:54.826Z,37.90
2018-03-23T18:46:54.823Z,39.60
2018-03-23T18:47:54.819Z,38.30
2018-03-23T18:48:54.811Z,39.00
2018-03-23T18:49:54.805Z,38.10
2018-03-23T18:50:54.809Z,39.60
2018-03-23T18:51:54.806Z,36.90
2018-03-23T18:52:54.803Z,37.10
2018-03-23T18:53:54.800Z,36.10
2018-03-23T18:54:54.789Z,36.50
2018-03-23T18:55:54.793Z,36.00
2018-03-23T18:56:54.793Z,36.60
2018-03-23T18:57:54.785Z,38.70
2018-03-23T18:58:54.782Z,36.90
2018-03-23T18:59:54.782Z,37.60
2018-03-23T19:00:54.769Z,37.20
2018-03-23T19:01:54.772Z,36.80
2018-03-23T19:02:54.770Z,35.50
2018-03-23T19:03:54.766Z,35.10
2018-03-23T19:04:54.767Z,35.20
2018-03-23T19:05:54.761Z,35.60
2018-03-23T19:06:54.763Z,35.10
2018-03-23T19:07:54.752Z,34.20
2018-03-23T19:08:54.742Z,36.20
2018-03-23T19:09:54.789Z,33.90
2018-03-23T19:10:54.746Z,37.10
2018-03-23T19:11:54.734Z,36.90
2018-03-23T19:12:54.734Z,37.00
2018-03-23T19:13:54.732Z,37.90
2018-03-23T19:14:54.730Z,38.50
2018-03-23T19:15:54.720Z,38.90
2018-03-23T19:16:54.744Z,40.60
2018-03-23T19:17:54.722Z,36.80
2018-03-23T19:18:54.714Z,36.70
2018-03-23T19:19:54.731Z,39.30